Time;durP1;ratioP1;P1;durP2;ratioP2;P2;SDS_P1;SDS_P2;PMS_P1;PMS_P2;Temp;Humidity;BMP_temperature;BMP_pressure;BME280_temperature;BME280_humidity;BME280_pressure;Samples;Min_cycle;Max_cycle;Signal;HPM_P1;HPM_P2
2022/07/22 00:00:13;;;;;;;6.00;2.95;;;;;;;21.84;51.97;96647.11;1747303;81;21011;-85
2022/07/22 00:02:40;;;;;;;5.97;3.40;;;;;;;21.88;52.16;96647.69;1755709;81;21109;-84
2022/07/22 00:05:08;;;;;;;5.42;3.15;;;;;;;21.92;52.00;96649.30;1745451;81;21058;-85
2022/07/22 00:07:33;;;;;;;5.58;3.40;;;;;;;21.96;52.13;96655.69;1737530;81;21039;-87
2022/07/22 00:09:59;;;;;;;8.70;3.67;;;;;;;21.97;51.75;96649.91;1746102;82;21087;-85
2022/07/22 00:12:25;;;;;;;5.80;3.72;;;;;;;22.00;51.73;96650.73;1755328;82;21074;-85
2022/07/22 00:14:51;;;;;;;5.05;3.27;;;;;;;22.01;51.72;96654.98;1743018;81;21011;-87
2022/07/22 00:17:16;;;;;;;6.92;4.08;;;;;;;22.02;51.90;96667.16;1738599;81;21328;-87
2022/07/22 00:19:42;;;;;;;11.08;5.08;;;;;;;21.95;53.16;96686.37;1688269;84;21099;-85
2022/07/22 00:22:08;;;;;;;9.48;5.97;;;;;;;21.85;53.49;96703.73;1713316;83;21054;-87
2022/07/22 00:24:33;;;;;;;6.60;5.90;;;;;;;21.75;53.99;96705.43;1730276;82;20988;-86
2022/07/22 00:26:59;;;;;;;8.85;6.78;;;;;;;21.62;54.36;96728.25;1755290;82;21039;-87
2022/07/22 00:29:25;;;;;;;9.15;6.10;;;;;;;21.50;55.34;96689.52;1755275;82;22059;-86
2022/07/22 00:31:50;;;;;;;7.83;6.00;;;;;;;21.40;55.29;96720.28;1755391;81;20962;-85
2022/07/22 00:34:16;;;;;;;9.65;6.37;;;;;;;21.35;55.69;96699.06;1755925;81;20908;-86
2022/07/22 00:36:45;;;;;;;7.03;5.00;;;;;;;21.29;55.90;96707.42;1752585;81;20991;-86
2022/07/22 00:39:10;;;;;;;9.60;6.55;;;;;;;21.27;55.91;96705.54;1746120;82;20963;-86
2022/07/22 00:41:36;;;;;;;10.78;6.05;;;;;;;21.25;56.72;96702.34;1755846;81;21370;-85
2022/07/22 00:44:05;;;;;;;7.10;5.70;;;;;;;21.21;56.99;96704.64;1730420;82;20963;-85
2022/07/22 00:46:32;;;;;;;8.30;5.05;;;;;;;21.18;56.93;96709.62;1755457;82;21358;-85
2022/07/22 00:48:58;;;;;;;7.60;5.92;;;;;;;21.21;56.81;96717.05;1714552;82;21142;-85
2022/07/22 00:51:26;;;;;;;7.45;5.00;;;;;;;21.24;57.30;96713.92;1756099;82;20992;-85
2022/07/22 00:53:52;;;;;;;10.40;5.95;;;;;;;21.23;57.18;96722.90;1740120;81;20990;-86
2022/07/22 00:56:17;;;;;;;7.58;5.50;;;;;;;21.28;56.81;96721.16;1747517;82;20984;-85
2022/07/22 00:58:44;;;;;;;7.50;6.25;;;;;;;21.34;56.83;96728.66;1756096;81;21391;-86
2022/07/22 01:01:10;;;;;;;10.13;6.17;;;;;;;21.39;56.41;96725.28;1714572;81;20962;-86
2022/07/22 01:03:36;;;;;;;8.45;5.67;;;;;;;21.43;56.59;96731.68;1740192;81;21016;-85
2022/07/22 01:06:01;;;;;;;9.33;6.08;;;;;;;21.46;56.39;96733.84;1738138;82;21357;-86
2022/07/22 01:08:27;;;;;;;9.80;5.97;;;;;;;21.48;57.52;96739.71;1747753;81;21047;-85
2022/07/22 01:10:53;;;;;;;8.70;6.75;;;;;;;21.53;57.51;96739.78;1749913;82;21034;-87
2022/07/22 01:13:18;;;;;;;11.05;6.20;;;;;;;21.59;57.46;96736.16;1743293;82;20979;-85
2022/07/22 01:15:44;;;;;;;10.85;6.33;;;;;;;21.64;57.92;96738.06;1755929;82;21326;-86
2022/07/22 01:18:10;;;;;;;8.98;6.08;;;;;;;21.68;57.90;96737.36;1725922;83;20954;-87
2022/07/22 01:20:36;;;;;;;10.68;6.75;;;;;;;21.72;58.04;96748.23;1747182;82;20943;-87
2022/07/22 01:23:02;;;;;;;8.83;6.10;;;;;;;21.78;58.09;96748.58;1755399;81;21310;-87
2022/07/22 01:25:27;;;;;;;10.85;5.85;;;;;;;21.81;58.54;96745.47;1725364;83;21276;-86
2022/07/22 01:27:53;;;;;;;10.58;7.35;;;;;;;21.84;58.36;96741.02;1710367;83;21062;-86
2022/07/22 01:30:19;;;;;;;8.98;6.92;;;;;;;21.85;58.17;96743.41;1726387;83;21034;-88
2022/07/22 01:32:45;;;;;;;10.28;7.00;;;;;;;21.84;58.30;96740.48;1732825;82;21051;-86
2022/07/22 01:35:11;;;;;;;9.40;7.08;;;;;;;21.83;58.44;96734.13;1735002;82;21439;-87
2022/07/22 01:37:37;;;;;;;10.58;6.97;;;;;;;21.81;58.98;96730.92;1725044;82;21047;-87
2022/07/22 01:40:04;;;;;;;12.82;7.80;;;;;;;21.78;59.20;96726.89;1748033;82;21063;-86
2022/07/22 01:42:30;;;;;;;9.50;7.00;;;;;;;21.76;59.35;96728.98;1732207;83;21036;-85
2022/07/22 01:44:56;;;;;;;9.20;7.22;;;;;;;21.75;59.73;96727.91;1728428;82;20923;-86
2022/07/22 01:47:21;;;;;;;10.38;7.03;;;;;;;21.72;59.63;96735.81;1755142;81;21003;-85
2022/07/22 01:49:47;;;;;;;8.40;7.42;;;;;;;21.70;60.00;96733.14;1755096;81;21007;-84
2022/07/22 01:52:13;;;;;;;11.20;7.30;;;;;;;21.66;60.56;96731.52;1751102;81;21042;-85
2022/07/22 01:54:39;;;;;;;9.23;6.83;;;;;;;21.66;60.43;96729.39;1747325;82;21007;-87
2022/07/22 01:57:04;;;;;;;11.28;7.70;;;;;;;21.67;60.71;96734.95;1752903;81;21508;-87
2022/07/22 01:59:30;;;;;;;9.68;7.45;;;;;;;21.65;60.96;96729.91;1738292;82;21303;-87
2022/07/22 02:01:56;;;;;;;10.08;7.90;;;;;;;21.63;61.14;96736.46;1732269;83;20964;-85
2022/07/22 02:04:21;;;;;;;8.10;7.30;;;;;;;21.61;61.11;96731.94;1740332;82;21010;-85
2022/07/22 02:06:47;;;;;;;8.55;6.92;;;;;;;21.59;61.31;96734.83;1755394;82;21050;-86
2022/07/22 02:09:13;;;;;;;8.38;7.55;;;;;;;21.58;61.41;96733.23;1742085;81;21379;-87
2022/07/22 02:11:39;;;;;;;9.13;7.50;;;;;;;21.55;61.77;96735.84;1754516;82;20979;-85
2022/07/22 02:14:05;;;;;;;9.88;7.20;;;;;;;21.54;61.66;96738.73;1741817;82;21327;-85
2022/07/22 02:16:31;;;;;;;11.33;7.40;;;;;;;21.51;61.75;96747.95;1753489;82;20939;-84
2022/07/22 02:18:56;;;;;;;9.20;7.25;;;;;;;21.53;62.11;96756.96;1754958;82;20999;-85
2022/07/22 02:21:22;;;;;;;11.15;8.13;;;;;;;21.50;62.48;96755.61;1730428;81;21005;-85
2022/07/22 02:23:48;;;;;;;8.43;7.15;;;;;;;21.49;62.48;96763.78;1720140;83;21367;-85
2022/07/22 02:26:14;;;;;;;8.78;7.85;;;;;;;21.48;62.52;96766.95;1749350;82;20974;-86
2022/07/22 02:28:39;;;;;;;11.43;7.45;;;;;;;21.50;62.58;96774.11;1713351;83;21335;-86
2022/07/22 02:31:05;;;;;;;9.40;7.87;;;;;;;21.52;62.62;96783.13;1733042;82;20955;-85
2022/07/22 02:33:31;;;;;;;9.83;7.75;;;;;;;21.51;62.97;96789.45;1741351;82;21331;-86
2022/07/22 02:35:57;;;;;;;9.20;7.17;;;;;;;21.50;63.37;96796.59;1744652;81;21994;-85
2022/07/22 02:38:23;;;;;;;10.70;7.33;;;;;;;21.51;63.25;96810.61;1749671;82;20940;-85
2022/07/22 02:40:49;;;;;;;8.20;7.15;;;;;;;21.48;63.63;96810.57;1735877;82;21003;-86
2022/07/22 02:43:14;;;;;;;8.25;7.20;;;;;;;21.45;63.38;96812.34;1750770;82;21026;-87
2022/07/22 02:45:40;;;;;;;10.00;7.50;;;;;;;21.42;64.18;96811.51;1749014;81;20921;-87
2022/07/22 02:48:06;;;;;;;10.35;7.20;;;;;;;21.42;63.61;96818.12;1723088;82;20951;-86
2022/07/22 02:50:36;;;;;;;7.33;6.62;;;;;;;21.39;64.11;96822.56;1722166;81;20931;-86
2022/07/22 02:53:02;;;;;;;9.85;7.10;;;;;;;21.38;63.79;96824.93;1754823;81;21338;-87
2022/07/22 02:55:28;;;;;;;9.05;6.70;;;;;;;21.41;64.00;96831.05;1740579;81;21009;-87
2022/07/22 02:57:53;;;;;;;7.67;6.87;;;;;;;21.42;63.92;96825.25;1726049;81;20933;-88
2022/07/22 03:00:20;;;;;;;9.18;7.37;;;;;;;21.43;63.60;96821.56;1720247;82;21268;-88
2022/07/22 03:02:46;;;;;;;8.20;6.97;;;;;;;21.44;63.65;96825.80;1751696;82;20928;-87
2022/07/22 03:05:12;;;;;;;8.30;7.12;;;;;;;21.43;63.57;96824.20;1755166;81;21352;-88
2022/07/22 03:07:38;;;;;;;10.50;7.30;;;;;;;21.43;63.64;96828.97;1752707;81;21051;-88
2022/07/22 03:10:05;;;;;;;8.63;7.22;;;;;;;21.40;63.54;96829.45;1743848;82;21078;-87
2022/07/22 03:12:30;;;;;;;8.83;6.78;;;;;;;21.38;63.56;96830.22;1755501;82;21043;-88
2022/07/22 03:14:56;;;;;;;7.75;6.35;;;;;;;21.36;63.52;96830.98;1751260;82;21335;-86
2022/07/22 03:17:22;;;;;;;8.55;6.55;;;;;;;21.35;63.60;96825.41;1749533;82;21039;-86
2022/07/22 03:19:48;;;;;;;8.03;6.92;;;;;;;21.35;63.89;96837.83;1734942;82;21015;-87
2022/07/22 03:22:13;;;;;;;7.80;6.85;;;;;;;21.34;63.56;96834.39;1740701;81;21060;-87
2022/07/22 03:24:39;;;;;;;8.50;6.28;;;;;;;21.35;63.54;96829.38;1709782;84;21348;-87
2022/07/22 03:27:05;;;;;;;8.10;6.37;;;;;;;21.39;63.42;96835.78;1745400;82;21130;-87
2022/07/22 03:29:30;;;;;;;10.18;6.60;;;;;;;21.41;63.33;96835.55;1755438;82;21051;-86
2022/07/22 03:31:56;;;;;;;8.35;7.08;;;;;;;21.43;63.29;96839.55;1750380;81;20974;-86
2022/07/22 03:34:22;;;;;;;7.05;6.25;;;;;;;21.45;63.43;96837.46;1737780;82;21302;-86
2022/07/22 03:36:48;;;;;;;9.18;6.40;;;;;;;21.47;63.14;96847.27;1741028;82;20998;-87
2022/07/22 03:39:15;;;;;;;7.80;6.45;;;;;;;21.51;63.13;96843.66;1756432;81;20924;-87
2022/07/22 03:41:41;;;;;;;7.72;6.92;;;;;;;21.54;63.17;96846.61;1755329;81;20955;-86
2022/07/22 03:44:07;;;;;;;7.42;5.87;;;;;;;21.55;63.04;96840.80;1755337;82;20994;-86
2022/07/22 03:46:32;;;;;;;8.60;6.65;;;;;;;21.57;63.35;96848.77;1755420;81;20935;-86
2022/07/22 03:48:58;;;;;;;8.08;6.67;;;;;;;21.57;63.27;96852.73;1737626;82;20991;-87
2022/07/22 03:51:24;;;;;;;9.65;6.95;;;;;;;21.59;63.17;96851.17;1748359;82;21058;-87
2022/07/22 03:53:50;;;;;;;7.72;7.03;;;;;;;21.62;63.19;96855.17;1751980;82;21339;-87
2022/07/22 03:56:16;;;;;;;9.03;6.20;;;;;;;21.65;63.08;96862.13;1746771;82;21023;-86
2022/07/22 03:58:41;;;;;;;8.15;7.00;;;;;;;21.68;63.02;96859.52;1733984;81;21102;-86
2022/07/22 04:01:07;;;;;;;7.78;6.53;;;;;;;21.69;62.95;96868.54;1730360;82;20966;-86
2022/07/22 04:03:33;;;;;;;9.68;7.10;;;;;;;21.69;63.08;96866.41;1737696;82;20975;-86
2022/07/22 04:05:59;;;;;;;7.87;6.60;;;;;;;21.69;63.03;96865.89;1750215;82;20944;-86
2022/07/22 04:08:25;;;;;;;8.43;6.60;;;;;;;21.66;63.15;96859.77;1738920;82;20995;-87
2022/07/22 04:10:51;;;;;;;6.90;6.20;;;;;;;21.67;63.07;96864.53;1750928;82;21061;-87
2022/07/22 04:13:16;;;;;;;7.15;6.40;;;;;;;21.64;63.26;96863.67;1745458;81;20945;-87
2022/07/22 04:15:43;;;;;;;7.95;6.37;;;;;;;21.61;63.19;96864.16;1720718;83;21051;-86
2022/07/22 04:18:08;;;;;;;8.40;7.03;;;;;;;21.59;63.31;96863.08;1748256;82;20968;-86
2022/07/22 04:20:36;;;;;;;7.03;6.33;;;;;;;21.56;63.40;96859.07;1728206;83;20980;-85
2022/07/22 04:23:02;;;;;;;7.08;6.37;;;;;;;21.54;63.50;96863.80;1723045;82;21370;-87
2022/07/22 04:25:27;;;;;;;8.75;6.40;;;;;;;21.54;63.54;96867.77;1746246;81;20959;-88
2022/07/22 04:27:53;;;;;;;9.18;6.62;;;;;;;21.55;63.52;96865.92;1749097;82;20928;-87
2022/07/22 04:30:19;;;;;;;7.20;6.50;;;;;;;21.53;63.53;96864.04;1754983;81;21350;-88
2022/07/22 04:32:45;;;;;;;7.58;6.53;;;;;;;21.53;63.44;96869.33;1742051;81;20991;-88
2022/07/22 04:35:10;;;;;;;7.40;6.50;;;;;;;21.51;63.50;96868.25;1750058;82;20948;-87
2022/07/22 04:37:36;;;;;;;6.83;6.00;;;;;;;21.37;63.54;96848.44;1745647;82;20955;-86
2022/07/22 04:40:03;;;;;;;7.08;6.35;;;;;;;21.43;63.79;96861.22;1740461;81;20956;-86
2022/07/22 04:42:29;;;;;;;7.05;6.33;;;;;;;21.39;63.60;96860.89;1754683;82;21306;-86
2022/07/22 04:44:54;;;;;;;8.20;6.45;;;;;;;21.37;63.61;96864.30;1722671;81;20944;-86
2022/07/22 04:47:20;;;;;;;8.98;6.50;;;;;;;21.35;63.77;96855.02;1743091;81;20972;-86
2022/07/22 04:49:46;;;;;;;8.63;6.45;;;;;;;21.32;63.85;96856.30;1728797;82;21059;-86
2022/07/22 04:52:12;;;;;;;7.58;6.40;;;;;;;21.30;63.79;96862.31;1753204;82;21354;-86
2022/07/22 04:54:38;;;;;;;6.72;5.97;;;;;;;21.32;63.92;96852.84;1744305;81;21330;-86
2022/07/22 04:57:03;;;;;;;7.28;6.00;;;;;;;21.35;64.11;96866.38;1737813;82;21006;-85
2022/07/22 04:59:29;;;;;;;7.58;6.87;;;;;;;21.38;64.26;96860.62;1739948;81;20948;-87
2022/07/22 05:01:55;;;;;;;6.97;6.12;;;;;;;21.42;64.15;96867.02;1676691;85;21397;-85
2022/07/22 05:04:21;;;;;;;6.75;6.15;;;;;;;21.48;64.18;96860.80;1662427;84;20960;-86
2022/07/22 05:06:46;;;;;;;8.23;6.53;;;;;;;21.53;64.23;96862.20;1684404;84;20975;-86
2022/07/22 05:09:12;;;;;;;7.15;6.45;;;;;;;21.61;64.16;96862.83;1685881;84;21031;-86
2022/07/22 05:11:38;;;;;;;6.78;6.10;;;;;;;21.68;64.34;96848.95;1687094;84;21061;-87
2022/07/22 05:14:04;;;;;;;7.05;6.42;;;;;;;21.75;64.51;96849.58;1688010;84;21364;-88
2022/07/22 05:16:29;;;;;;;6.97;6.25;;;;;;;21.83;64.80;96843.89;1688023;84;20980;-87
2022/07/22 05:18:55;;;;;;;7.22;6.50;;;;;;;21.87;64.41;96841.84;1694258;84;21359;-87
2022/07/22 05:21:21;;;;;;;8.78;7.17;;;;;;;21.93;64.18;96848.52;1686006;84;20924;-86
2022/07/22 05:23:46;;;;;;;7.28;6.60;;;;;;;21.95;63.88;96849.88;1686745;85;21007;-87
2022/07/22 05:26:12;;;;;;;8.03;6.97;;;;;;;21.95;63.89;96851.72;1687318;84;20991;-86
2022/07/22 05:28:38;;;;;;;7.97;6.42;;;;;;;21.98;63.83;96851.27;1687087;84;21045;-86
2022/07/22 05:31:04;;;;;;;7.30;6.65;;;;;;;22.01;63.74;96853.42;1687297;84;21030;-87
2022/07/22 05:33:30;;;;;;;9.25;6.80;;;;;;;22.06;63.96;96852.19;1688339;84;20955;-87
2022/07/22 05:35:56;;;;;;;7.08;6.30;;;;;;;22.10;63.66;96854.09;1736116;83;20999;-87
2022/07/22 05:38:22;;;;;;;9.98;7.37;;;;;;;22.15;63.79;96856.84;1749809;82;20971;-88
2022/07/22 05:40:47;;;;;;;9.38;6.45;;;;;;;22.19;63.86;96851.85;1734332;82;21397;-86
2022/07/22 05:43:13;;;;;;;9.23;6.70;;;;;;;22.24;63.81;96841.84;1749645;82;20975;-87
2022/07/22 05:45:39;;;;;;;7.50;6.80;;;;;;;22.28;63.37;96838.98;1725403;81;21349;-88
2022/07/22 05:48:05;;;;;;;7.87;6.50;;;;;;;22.33;63.99;96833.25;1727285;82;21028;-87
2022/07/22 05:50:31;;;;;;;8.70;6.55;;;;;;;22.38;64.54;96824.05;1751893;82;20995;-86
2022/07/22 05:52:57;;;;;;;7.37;6.22;;;;;;;22.43;64.87;96820.65;1738308;82;21067;-86
2022/07/22 05:55:23;;;;;;;6.95;6.00;;;;;;;22.48;64.82;96809.34;1733277;82;21402;-88
2022/07/22 05:57:49;;;;;;;17.48;8.60;;;;;;;22.54;64.84;96814.97;1738243;81;20978;-88
2022/07/22 06:00:16;;;;;;;7.45;6.60;;;;;;;22.62;64.96;96806.59;1719966;82;20952;-88
2022/07/22 06:02:41;;;;;;;7.72;7.08;;;;;;;22.68;64.90;96812.22;1745672;82;20953;-88
2022/07/22 06:05:07;;;;;;;7.92;6.90;;;;;;;22.77;64.50;96815.48;1726451;82;21015;-88
2022/07/22 06:07:33;;;;;;;8.38;7.35;;;;;;;22.83;63.76;96807.64;1721943;82;21149;-87
2022/07/22 06:09:59;;;;;;;9.08;7.17;;;;;;;22.86;63.02;96803.97;1719826;81;21355;-88
2022/07/22 06:12:25;;;;;;;7.62;6.45;;;;;;;22.94;63.21;96802.70;1756269;82;21059;-88
2022/07/22 06:14:50;;;;;;;9.95;6.90;;;;;;;23.04;63.23;96802.82;1701162;83;20938;-87
2022/07/22 06:17:16;;;;;;;7.97;7.20;;;;;;;23.12;62.54;96797.08;1726504;83;21051;-89
2022/07/22 06:19:42;;;;;;;8.15;7.03;;;;;;;23.17;62.68;96788.37;1751605;82;20884;-87
2022/07/22 06:22:09;;;;;;;7.87;6.55;;;;;;;23.17;62.84;96766.64;1742410;81;20937;-87
2022/07/22 06:24:35;;;;;;;7.87;6.95;;;;;;;23.26;63.75;96762.98;1748232;82;20936;-89
2022/07/22 06:27:00;;;;;;;10.85;7.78;;;;;;;23.28;63.32;96779.46;1755781;81;21042;-86
2022/07/22 06:29:26;;;;;;;8.40;7.47;;;;;;;23.29;65.23;96802.27;1732625;82;20943;-88
2022/07/22 06:31:52;;;;;;;8.53;7.45;;;;;;;23.28;63.91;96814.73;1754701;82;21267;-86
2022/07/22 06:34:18;;;;;;;9.58;7.53;;;;;;;23.29;63.32;96819.50;1738728;81;20951;-86
2022/07/22 06:36:44;;;;;;;8.65;7.05;;;;;;;23.32;62.82;96828.27;1750925;82;21014;-88
2022/07/22 06:39:09;;;;;;;10.43;7.42;;;;;;;23.34;63.29;96838.09;1741651;81;20912;-87
2022/07/22 06:41:35;;;;;;;8.73;7.83;;;;;;;23.35;62.46;96830.41;1748823;82;21055;-87
2022/07/22 06:44:01;;;;;;;8.60;7.67;;;;;;;23.35;62.46;96830.41;1726304;82;21346;-88
2022/07/22 06:46:26;;;;;;;10.28;7.78;;;;;;;23.33;62.50;96815.28;1737031;81;21341;-86
2022/07/22 06:48:52;;;;;;;10.08;7.95;;;;;;;23.38;62.78;96816.65;1754727;82;20985;-87
2022/07/22 06:51:18;;;;;;;9.35;7.70;;;;;;;23.45;62.61;96815.13;1754977;81;20940;-87
2022/07/22 06:53:44;;;;;;;9.90;7.53;;;;;;;23.49;62.67;96822.84;1705809;82;20970;-88
2022/07/22 06:56:09;;;;;;;8.35;7.45;;;;;;;23.52;62.67;96822.34;1742863;81;21073;-87
2022/07/22 06:58:35;;;;;;;8.03;7.25;;;;;;;23.56;62.60;96822.09;1726813;82;21030;-88
2022/07/22 07:01:01;;;;;;;10.18;7.62;;;;;;;23.57;62.21;96824.52;1706751;82;21002;-88
2022/07/22 07:03:26;;;;;;;7.95;7.03;;;;;;;23.60;62.36;96825.89;1741690;82;20974;-88
2022/07/22 07:05:52;;;;;;;10.28;8.20;;;;;;;23.62;61.97;96821.93;1755635;82;21016;-86
2022/07/22 07:08:18;;;;;;;8.40;7.60;;;;;;;23.60;62.12;96828.02;1744439;82;20947;-86
2022/07/22 07:10:44;;;;;;;11.35;7.78;;;;;;;23.61;62.22;96839.43;1730323;82;21011;-86
2022/07/22 07:13:10;;;;;;;8.70;7.80;;;;;;;23.62;61.77;96834.39;1735416;82;21025;-88
2022/07/22 07:15:36;;;;;;;8.00;7.30;;;;;;;23.62;61.58;96813.97;1733076;82;21389;-88
2022/07/22 07:18:02;;;;;;;9.23;8.00;;;;;;;23.63;61.95;96814.77;1750014;82;20928;-88
2022/07/22 07:20:27;;;;;;;9.40;7.67;;;;;;;23.69;63.07;96831.52;1746181;82;21023;-86
2022/07/22 07:22:53;;;;;;;9.73;8.20;;;;;;;23.74;62.15;96824.91;1741920;82;20951;-87
2022/07/22 07:25:19;;;;;;;10.50;8.20;;;;;;;23.80;62.11;96827.36;1744580;82;21397;-87
2022/07/22 07:27:45;;;;;;;9.03;7.60;;;;;;;23.90;61.91;96822.11;1743759;82;21031;-88
2022/07/22 07:30:11;;;;;;;8.18;7.20;;;;;;;23.98;61.23;96822.70;1743032;82;20936;-87
2022/07/22 07:32:38;;;;;;;9.15;7.65;;;;;;;24.09;61.97;96820.39;1756420;81;20975;-88
2022/07/22 07:35:05;;;;;;;10.95;8.83;;;;;;;24.19;61.16;96819.10;1734630;82;21002;-88
2022/07/22 07:37:31;;;;;;;11.25;8.15;;;;;;;24.29;61.17;96816.54;1755787;81;20971;-86
2022/07/22 07:39:59;;;;;;;8.60;7.80;;;;;;;24.41;61.40;96819.80;1735834;81;20968;-88
2022/07/22 07:42:25;;;;;;;11.57;8.58;;;;;;;24.47;60.70;96809.98;1755463;81;21047;-88
2022/07/22 07:44:51;;;;;;;9.30;7.70;;;;;;;24.52;60.23;96810.78;1755335;81;20904;-86
2022/07/22 07:47:18;;;;;;;8.65;7.37;;;;;;;24.61;59.83;96810.30;1755586;81;21373;-87
2022/07/22 07:49:46;;;;;;;8.93;8.03;;;;;;;24.64;58.81;96809.77;1755602;82;20974;-88
2022/07/22 07:52:12;;;;;;;10.10;8.13;;;;;;;24.68;59.22;96813.50;1741941;81;20952;-87
2022/07/22 07:54:40;;;;;;;9.55;8.60;;;;;;;24.75;59.74;96818.86;1727741;82;20982;-88
2022/07/22 07:57:08;;;;;;;10.00;7.97;;;;;;;24.80;58.93;96818.06;1714754;82;21038;-89
2022/07/22 07:59:34;;;;;;;9.35;8.10;;;;;;;24.76;58.42;96818.33;1734515;82;20921;-87
2022/07/22 08:02:00;;;;;;;8.68;7.85;;;;;;;24.77;58.23;96819.92;1732427;82;21010;-87
2022/07/22 08:04:26;;;;;;;11.12;8.30;;;;;;;24.85;58.81;96823.39;1741352;82;21006;-88
2022/07/22 08:06:51;;;;;;;10.70;8.48;;;;;;;24.89;58.54;96824.98;1729247;82;21032;-87
2022/07/22 08:09:17;;;;;;;9.18;8.03;;;;;;;24.91;57.88;96826.34;1681529;84;21382;-89
2022/07/22 08:11:43;;;;;;;9.75;7.55;;;;;;;24.92;57.55;96827.94;1695670;84;21033;-88
2022/07/22 08:14:09;;;;;;;10.80;8.38;;;;;;;24.95;58.47;96827.94;1692885;84;21035;-88
2022/07/22 08:16:34;;;;;;;9.58;8.63;;;;;;;24.95;58.43;96835.39;1720895;83;20972;-88
2022/07/22 08:19:00;;;;;;;10.25;8.23;;;;;;;24.93;57.59;96827.41;1739595;82;20928;-87
2022/07/22 08:21:26;;;;;;;9.45;8.38;;;;;;;24.95;57.93;96829.27;1740655;81;21022;-88
2022/07/22 08:23:52;;;;;;;9.85;8.58;;;;;;;24.99;57.98;96833.80;1756588;82;20940;-87
2022/07/22 08:26:18;;;;;;;8.90;8.00;;;;;;;25.13;57.87;96833.59;1754938;82;20931;-89
2022/07/22 08:28:44;;;;;;;10.40;8.18;;;;;;;25.30;57.73;96824.58;1725258;82;20959;-87
2022/07/22 08:31:11;;;;;;;10.23;9.18;;;;;;;25.52;57.47;96831.76;1754859;82;21390;-88
2022/07/22 08:33:37;;;;;;;8.55;7.67;;;;;;;25.63;56.81;96825.38;1718871;82;20968;-88
2022/07/22 08:36:03;;;;;;;8.95;7.62;;;;;;;25.76;56.53;96826.74;1745106;81;20956;-88
2022/07/22 08:38:30;;;;;;;10.05;8.28;;;;;;;25.91;56.16;96824.60;1735402;82;20940;-89
2022/07/22 08:40:56;;;;;;;9.85;7.50;;;;;;;26.15;56.67;96832.27;1734607;82;21063;-87
2022/07/22 08:43:24;;;;;;;9.88;8.48;;;;;;;26.43;56.19;96839.42;1748755;82;20956;-89
2022/07/22 08:45:50;;;;;;;10.00;8.10;;;;;;;26.43;56.19;96839.42;1744994;82;20959;-88
2022/07/22 08:48:16;;;;;;;9.15;8.35;;;;;;;26.54;56.59;96840.45;1754528;81;20904;-86
2022/07/22 08:50:42;;;;;;;9.90;8.90;;;;;;;26.57;55.63;96829.78;1725359;82;20987;-89
2022/07/22 08:53:10;;;;;;;12.00;9.65;;;;;;;26.73;55.72;96844.64;1732889;81;21055;-87
2022/07/22 08:55:45;;;;;;;9.88;8.43;;;;;;;26.85;55.63;96847.79;1733195;82;21050;-87
2022/07/22 08:58:11;;;;;;;10.58;9.18;;;;;;;26.85;54.80;96846.45;1707486;82;28455;-86
2022/07/22 09:00:37;;;;;;;10.95;10.03;;;;;;;26.90;55.00;96842.96;1710534;82;20992;-88
2022/07/22 09:03:27;;;;;;;12.20;9.45;;;;;;;26.87;54.17;96844.31;1704031;82;20976;-88
2022/07/22 09:05:52;;;;;;;11.60;10.40;;;;;;;26.81;53.84;96848.59;1734167;82;20956;-87
2022/07/22 09:08:19;;;;;;;10.53;9.48;;;;;;;26.69;54.04;96849.47;1734466;82;20980;-87
2022/07/22 09:10:46;;;;;;;9.80;8.83;;;;;;;26.55;53.84;96852.70;1748956;81;21014;-89
2022/07/22 09:13:12;;;;;;;10.82;9.68;;;;;;;26.51;54.86;96857.50;1760376;81;21068;-89
2022/07/22 09:15:41;;;;;;;10.60;9.33;;;;;;;26.43;54.58;96854.08;1721194;82;21046;-88
2022/07/22 09:18:09;;;;;;;10.55;9.63;;;;;;;26.43;55.09;96856.73;1756716;81;21373;-87
2022/07/22 09:20:36;;;;;;;14.35;10.13;;;;;;;26.36;54.56;96857.04;1760115;81;21010;-88
2022/07/22 09:23:03;;;;;;;11.53;10.03;;;;;;;26.36;54.98;96853.55;1743757;81;20927;-88
2022/07/22 09:25:32;;;;;;;13.03;9.85;;;;;;;26.39;55.17;96855.69;1721651;81;20955;-87
2022/07/22 09:28:12;;;;;;;10.72;9.48;;;;;;;26.48;55.54;96856.72;1745850;81;20979;-88
2022/07/22 09:30:43;;;;;;;11.43;10.23;;;;;;;26.57;55.37;96853.77;1743017;81;21399;-87
2022/07/22 09:33:10;;;;;;;11.33;10.23;;;;;;;26.68;54.87;96852.64;1745838;81;20980;-88
2022/07/22 09:35:37;;;;;;;11.20;10.10;;;;;;;26.84;54.49;96852.83;1721076;81;20971;-86
2022/07/22 09:38:05;;;;;;;10.58;9.58;;;;;;;26.92;53.62;96852.81;1760365;81;20971;-89
2022/07/22 09:40:39;;;;;;;10.82;9.83;;;;;;;27.01;54.39;96847.71;1760456;81;20931;-88
2022/07/22 09:43:12;;;;;;;11.18;10.05;;;;;;;27.17;53.76;96846.05;1760313;81;21058;-87
2022/07/22 09:46:01;;;;;;;12.00;10.50;;;;;;;27.28;53.08;96850.76;1718421;81;21026;-87
2022/07/22 09:48:24;;;;;;;10.08;9.08;;;;;;;27.25;53.98;96851.86;1744556;81;20978;-88
2022/07/22 09:50:51;;;;;;;10.65;9.70;;;;;;;27.24;53.02;96846.27;1737767;82;20953;-88
2022/07/22 09:53:19;;;;;;;12.70;9.58;;;;;;;27.42;54.81;96850.94;1681415;84;20997;-88
2022/07/22 09:55:44;;;;;;;11.33;9.65;;;;;;;27.54;53.31;96846.05;1742298;82;21003;-88
2022/07/22 09:58:11;;;;;;;10.35;9.38;;;;;;;27.59;53.81;96845.20;1753676;81;20995;-89
2022/07/22 10:00:38;;;;;;;11.10;10.05;;;;;;;27.62;53.79;96845.98;1737411;81;20948;-89
2022/07/22 10:03:07;;;;;;;9.90;8.93;;;;;;;27.65;53.69;96844.11;1711169;81;20940;-88
2022/07/22 10:05:37;;;;;;;10.68;9.63;;;;;;;27.72;52.44;96847.27;1740034;81;20979;-88
2022/07/22 10:08:04;;;;;;;11.00;9.90;;;;;;;27.80;54.09;96837.31;1754314;81;20912;-88
2022/07/22 10:10:31;;;;;;;10.55;9.30;;;;;;;27.77;52.72;96842.67;1751522;81;20975;-88
2022/07/22 10:12:59;;;;;;;10.18;9.23;;;;;;;27.85;51.70;96839.95;1742279;81;21010;-88
2022/07/22 10:15:26;;;;;;;11.78;10.55;;;;;;;27.96;51.57;96841.43;1749893;81;20944;-87
2022/07/22 10:17:58;;;;;;;11.53;10.32;;;;;;;28.07;51.41;96843.48;1736996;81;20958;-87
2022/07/22 10:20:26;;;;;;;9.93;9.00;;;;;;;28.20;52.94;96847.36;1749177;81;20951;-88
2022/07/22 10:23:07;;;;;;;10.82;9.68;;;;;;;28.26;52.21;96836.90;1735850;81;21019;-86
2022/07/22 10:25:54;;;;;;;12.88;9.98;;;;;;;28.27;50.99;96837.16;1740189;81;20948;-88
2022/07/22 10:28:34;;;;;;;12.33;9.38;;;;;;;28.27;50.46;96827.80;1758088;81;20947;-89
2022/07/22 10:31:24;;;;;;;11.83;10.38;;;;;;;28.26;50.10;96829.68;1760278;81;21084;-87
2022/07/22 10:33:53;;;;;;;10.63;9.15;;;;;;;28.30;50.06;96832.03;1713531;81;21401;-89
2022/07/22 10:36:40;;;;;;;10.08;9.08;;;;;;;28.32;50.39;96829.10;1739981;81;21008;-89
2022/07/22 10:39:10;;;;;;;10.30;8.70;;;;;;;28.38;49.91;96825.28;1751337;81;20975;-89
2022/07/22 10:41:44;;;;;;;10.38;9.20;;;;;;;28.46;49.37;96827.31;1755721;81;20919;-89
2022/07/22 10:44:10;;;;;;;10.63;8.90;;;;;;;28.53;49.61;96827.78;1761372;81;21373;-89
2022/07/22 10:46:54;;;;;;;9.58;8.55;;;;;;;28.65;49.73;96821.49;1762136;81;21000;-89
2022/07/22 10:49:24;;;;;;;11.70;8.98;;;;;;;28.70;49.17;96821.41;1707540;83;20972;-89
2022/07/22 10:52:08;;;;;;;9.98;8.50;;;;;;;28.51;47.61;96818.45;1704593;83;21023;-88
2022/07/22 10:54:34;;;;;;;8.93;7.95;;;;;;;28.50;47.66;96821.67;1677862;84;20976;-89
2022/07/22 10:57:00;;;;;;;9.88;8.83;;;;;;;28.56;48.76;96823.73;1651192;85;21096;-89
2022/07/22 10:59:27;;;;;;;10.08;8.70;;;;;;;28.64;48.50;96819.90;1681390;84;21004;-89
2022/07/22 11:01:54;;;;;;;10.50;9.00;;;;;;;28.77;48.91;96818.92;1679621;84;20949;-89
2022/07/22 11:04:25;;;;;;;9.70;8.78;;;;;;;28.91;48.83;96813.15;1693511;84;21036;-87
2022/07/22 11:06:55;;;;;;;9.80;8.80;;;;;;;28.94;48.85;96808.55;1682006;84;21036;-88
2022/07/22 11:09:23;;;;;;;10.15;9.20;;;;;;;28.78;48.89;96811.15;1693437;84;20964;-89
2022/07/22 11:11:52;;;;;;;9.83;7.90;;;;;;;28.67;49.00;96809.17;1677765;85;21384;-88
2022/07/22 11:14:30;;;;;;;9.58;8.60;;;;;;;28.60;49.24;96801.48;1676961;85;20993;-89
2022/07/22 11:17:08;;;;;;;10.80;9.78;;;;;;;28.55;50.24;96804.77;1683603;85;21474;-87
2022/07/22 11:19:37;;;;;;;9.78;8.88;;;;;;;28.54;49.30;96807.98;1709165;83;20987;-88
2022/07/22 11:22:05;;;;;;;10.38;7.87;;;;;;;28.47;48.86;96801.38;1697967;83;21048;-89
2022/07/22 11:24:31;;;;;;;9.68;8.15;;;;;;;28.50;50.50;96803.50;1679452;84;21358;-89
2022/07/22 11:27:02;;;;;;;9.08;8.23;;;;;;;28.53;50.58;96799.71;1692169;84;21016;-87